Time,TemperatureF,DewpointF,PressureIn,WindDirection,WindDirectionDegrees,WindSpeedMPH,WindSpeedGustMPH,Humidity,HourlyPrecipIn,Conditions,Clouds,dailyrainin,SoftwareType,DateUTC
2013-04-25 00:13:00,40.0,37.0,30.24,WSW,253,0.0,0.0,87,0.00,,,0.00,weatherlink.com 1.10,2013-04-25 05:13:00,
2013-04-25 00:28:00,40.1,36.0,30.23,WSW,253,0.0,1.0,86,0.00,,,0.00,weatherlink.com 1.10,2013-04-25 05:28:00,
2013-04-25 00:43:00,40.3,37.0,30.23,WSW,253,0.0,0.0,86,0.00,,,0.00,weatherlink.com 1.10,2013-04-25 05:43:00,
2013-04-25 00:58:00,39.8,36.0,30.24,WSW,253,0.0,0.0,86,0.00,,,0.00,weatherlink.com 1.10,2013-04-25 05:58:00,
2013-04-25 01:13:00,39.0,36.0,30.24,WSW,253,0.0,1.0,88,0.00,,,0.00,weatherlink.com 1.10,2013-04-25 06:13:00,
2013-04-25 01:28:00,38.4,36.0,30.24,WSW,253,0.0,0.0,89,0.00,,,0.00,weatherlink.com 1.10,2013-04-25 06:28:00,
2013-04-25 01:44:00,38.0,35.0,30.24,WSW,253,0.0,0.0,90,0.00,,,0.00,weatherlink.com 1.10,2013-04-25 06:44:00,
2013-04-25 01:59:00,37.9,35.0,30.24,WSW,253,0.0,0.0,90,0.00,,,0.00,weatherlink.com 1.10,2013-04-25 06:59:00,
2013-04-25 02:14:00,37.8,35.0,30.24,WSW,253,0.0,0.0,90,0.00,,,0.00,weatherlink.com 1.10,2013-04-25 07:14:00,
2013-04-25 02:29:00,37.7,35.0,30.24,WSW,253,0.0,0.0,90,0.00,,,0.00,weatherlink.com 1.10,2013-04-25 07:29:00,
2013-04-25 02:44:00,37.6,35.0,30.24,WSW,253,0.0,0.0,91,0.00,,,0.00,weatherlink.com 1.10,2013-04-25 07:44:00,
2013-04-25 02:59:00,37.6,35.0,30.24,WSW,253,0.0,0.0,91,0.00,,,0.00,weatherlink.com 1.10,2013-04-25 07:59:00,
2013-04-25 03:14:00,37.8,36.0,30.25,WSW,253,0.0,1.0,92,0.00,,,0.00,weatherlink.com 1.10,2013-04-25 08:14:00,
2013-04-25 03:29:00,37.7,35.0,30.24,WSW,253,0.0,0.0,91,0.00,,,0.00,weatherlink.com 1.10,2013-04-25 08:29:00,
2013-04-25 03:44:00,37.5,35.0,30.25,WSW,253,0.0,1.0,92,0.00,,,0.00,weatherlink.com 1.10,2013-04-25 08:44:00,
2013-04-25 03:59:00,37.3,35.0,30.25,WSW,253,0.0,0.0,92,0.00,,,0.00,weatherlink.com 1.10,2013-04-25 08:59:00,
2013-04-25 04:14:00,37.2,35.0,30.25,WSW,253,0.0,0.0,93,0.00,,,0.00,weatherlink.com 1.10,2013-04-25 09:14:00,
2013-04-25 04:29:00,37.3,36.0,30.26,WSW,253,0.0,1.0,93,0.00,,,0.00,weatherlink.com 1.10,2013-04-25 09:29:00,
2013-04-25 04:44:00,37.6,36.0,30.25,WSW,253,0.0,0.0,93,0.00,,,0.00,weatherlink.com 1.10,2013-04-25 09:44:00,
2013-04-25 04:59:00,37.9,36.0,30.25,WSW,253,0.0,2.0,93,0.00,,,0.00,weatherlink.com 1.10,2013-04-25 09:59:00,
2013-04-25 05:14:00,38.5,37.0,30.25,WSW,251,0.0,1.0,93,0.00,,,0.00,weatherlink.com 1.10,2013-04-25 10:14:00,
2013-04-25 05:29:00,38.8,37.0,30.25,WSW,251,0.0,2.0,92,0.00,,,0.00,weatherlink.com 1.10,2013-04-25 10:29:00,
2013-04-25 05:44:00,38.4,36.0,30.25,WSW,251,0.0,1.0,92,0.00,,,0.00,weatherlink.com 1.10,2013-04-25 10:44:00,
2013-04-25 05:59:00,38.1,36.0,30.26,WSW,251,0.0,1.0,92,0.00,,,0.00,weatherlink.com 1.10,2013-04-25 10:59:00,
2013-04-25 06:14:00,38.0,36.0,30.26,WSW,251,0.0,1.0,92,0.00,,,0.00,weatherlink.com 1.10,2013-04-25 11:14:00,
2013-04-25 06:29:00,38.5,37.0,30.27,WSW,251,0.0,3.0,93,0.00,,,0.00,weatherlink.com 1.10,2013-04-25 11:29:00,
2013-04-25 06:44:00,39.6,37.0,30.28,WSW,251,1.0,4.0,91,0.00,,,0.00,weatherlink.com 1.10,2013-04-25 11:44:00,
2013-04-25 06:59:00,40.8,38.0,30.27,WSW,247,1.0,3.0,89,0.00,,,0.00,weatherlink.com 1.10,2013-04-25 11:59:00,
2013-04-25 07:14:00,42.4,38.0,30.27,South,172,1.0,4.0,84,0.00,,,0.00,weatherlink.com 1.10,2013-04-25 12:14:00,
2013-04-25 07:29:00,44.0,38.0,30.28,SSE,162,0.0,4.0,80,0.00,,,0.00,weatherlink.com 1.10,2013-04-25 12:29:00,
2013-04-25 07:44:00,45.2,38.0,30.29,SW,234,5.0,6.0,77,0.00,,,0.00,weatherlink.com 1.10,2013-04-25 12:44:00,
2013-04-25 07:59:00,46.1,38.0,30.29,South,177,0.0,8.0,74,0.00,,,0.00,weatherlink.com 1.10,2013-04-25 12:59:00,
2013-04-25 08:14:00,46.9,38.0,30.30,SW,229,4.0,8.0,71,0.00,,,0.00,weatherlink.com 1.10,2013-04-25 13:14:00,
2013-04-25 08:29:00,47.8,38.0,30.30,SSE,160,2.0,9.0,68,0.00,,,0.00,weatherlink.com 1.10,2013-04-25 13:29:00,
2013-04-25 08:44:00,48.7,37.0,30.30,West,262,4.0,11.0,65,0.00,,,0.00,weatherlink.com 1.10,2013-04-25 13:44:00,
2013-04-25 08:59:00,49.9,38.0,30.30,SW,218,5.0,8.0,64,0.00,,,0.00,weatherlink.com 1.10,2013-04-25 13:59:00,
2013-04-25 09:14:00,51.0,36.0,30.31,WSW,251,5.0,12.0,57,0.00,,,0.00,weatherlink.com 1.10,2013-04-25 14:14:00,
2013-04-25 09:30:00,52.7,36.0,30.31,WNW,294,7.0,12.0,53,0.00,,,0.00,weatherlink.com 1.10,2013-04-25 14:30:00,
2013-04-25 09:45:00,52.6,35.0,30.31,NW,325,8.0,14.0,52,0.00,,,0.00,weatherlink.com 1.10,2013-04-25 14:45:00,
2013-04-25 10:00:00,53.3,36.0,30.31,WSW,251,12.0,13.0,52,0.00,,,0.00,weatherlink.com 1.10,2013-04-25 15:00:00,
2013-04-25 10:15:00,53.6,36.0,30.32,West,259,6.0,11.0,52,0.00,,,0.00,weatherlink.com 1.10,2013-04-25 15:15:00,
2013-04-25 10:30:00,54.3,37.0,30.32,North,354,5.0,13.0,52,0.00,,,0.00,weatherlink.com 1.10,2013-04-25 15:30:00,
2013-04-25 10:45:00,54.7,38.0,30.32,SW,223,8.0,10.0,53,0.00,,,0.00,weatherlink.com 1.10,2013-04-25 15:45:00,
2013-04-25 11:00:00,55.5,38.0,30.32,NW,318,6.0,9.0,53,0.00,,,0.00,weatherlink.com 1.10,2013-04-25 16:00:00,
2013-04-25 11:15:00,56.5,39.0,30.31,West,264,3.0,7.0,53,0.00,,,0.00,weatherlink.com 1.10,2013-04-25 16:15:00,
2013-04-25 11:30:00,57.7,39.0,30.31,WSW,256,7.0,10.0,50,0.00,,,0.00,weatherlink.com 1.10,2013-04-25 16:30:00,
2013-04-25 11:45:00,58.3,39.0,30.30,West,274,4.0,8.0,49,0.00,,,0.00,weatherlink.com 1.10,2013-04-25 16:45:00,
2013-04-25 12:00:00,58.8,40.0,30.30,WNW,283,5.0,14.0,51,0.00,,,0.00,weatherlink.com 1.10,2013-04-25 17:00:00,
2013-04-25 12:15:00,59.6,40.0,30.30,NNW,342,6.0,13.0,49,0.00,,,0.00,weatherlink.com 1.10,2013-04-25 17:15:00,
2013-04-25 12:30:00,59.2,39.0,30.30,NNW,348,4.0,12.0,47,0.00,,,0.00,weatherlink.com 1.10,2013-04-25 17:30:00,
2013-04-25 12:45:00,59.6,40.0,30.30,NW,319,3.0,17.0,48,0.00,,,0.00,weatherlink.com 1.10,2013-04-25 17:45:00,
2013-04-25 13:00:00,60.3,39.0,30.30,NW,308,4.0,12.0,46,0.00,,,0.00,weatherlink.com 1.10,2013-04-25 18:00:00,
2013-04-25 13:15:00,59.7,39.0,30.30,NNE,32,9.0,15.0,47,0.00,,,0.00,weatherlink.com 1.10,2013-04-25 18:15:00,
2013-04-25 13:30:00,59.6,39.0,30.30,North,4,4.0,17.0,46,0.00,,,0.00,weatherlink.com 1.10,2013-04-25 18:30:00,
2013-04-25 13:45:00,60.3,39.0,30.30,NW,307,8.0,14.0,46,0.00,,,0.00,weatherlink.com 1.10,2013-04-25 18:45:00,
2013-04-25 14:00:00,60.8,39.0,30.30,NNW,344,7.0,12.0,45,0.00,,,0.00,weatherlink.com 1.10,2013-04-25 19:00:00,
2013-04-25 14:15:00,60.8,39.0,30.30,NNW,341,5.0,17.0,44,0.00,,,0.00,weatherlink.com 1.10,2013-04-25 19:15:00,
2013-04-25 14:30:00,61.1,39.0,30.30,NNE,14,11.0,14.0,45,0.00,,,0.00,weatherlink.com 1.10,2013-04-25 19:30:00,
2013-04-25 14:45:00,61.3,38.0,30.30,NNW,342,9.0,11.0,43,0.00,,,0.00,weatherlink.com 1.10,2013-04-25 19:45:00,
2013-04-25 15:00:00,61.9,40.0,30.30,NW,312,5.0,10.0,44,0.00,,,0.00,weatherlink.com 1.10,2013-04-25 20:00:00,
2013-04-25 15:15:00,61.3,39.0,30.29,NNE,29,5.0,12.0,44,0.00,,,0.00,weatherlink.com 1.10,2013-04-25 20:15:00,
2013-04-25 15:30:00,61.7,39.0,30.28,NNE,12,5.0,15.0,44,0.00,,,0.00,weatherlink.com 1.10,2013-04-25 20:30:00,
2013-04-25 15:45:00,61.7,39.0,30.28,NNW,346,6.0,14.0,44,0.00,,,0.00,weatherlink.com 1.10,2013-04-25 20:45:00,
2013-04-25 16:00:00,62.0,39.0,30.27,NNW,338,5.0,11.0,43,0.00,,,0.00,weatherlink.com 1.10,2013-04-25 21:00:00,
2013-04-25 16:15:00,62.3,39.0,30.27,NW,318,5.0,9.0,42,0.00,,,0.00,weatherlink.com 1.10,2013-04-25 21:15:00,
2013-04-25 16:30:00,62.2,39.0,30.27,WNW,299,2.0,8.0,42,0.00,,,0.00,weatherlink.com 1.10,2013-04-25 21:30:00,
2013-04-25 16:45:00,62.4,38.0,30.27,NW,320,7.0,10.0,41,0.00,,,0.00,weatherlink.com 1.10,2013-04-25 21:45:00,
2013-04-25 17:00:00,62.5,39.0,30.26,NNW,339,4.0,10.0,42,0.00,,,0.00,weatherlink.com 1.10,2013-04-25 22:00:00,
2013-04-25 17:15:00,62.2,39.0,30.27,NNW,335,1.0,10.0,42,0.00,,,0.00,weatherlink.com 1.10,2013-04-25 22:15:00,
2013-04-25 17:30:00,63.1,39.0,30.27,North,359,2.0,7.0,41,0.00,,,0.00,weatherlink.com 1.10,2013-04-25 22:30:00,
2013-04-25 17:45:00,62.9,38.0,30.26,NNE,26,5.0,9.0,40,0.00,,,0.00,weatherlink.com 1.10,2013-04-25 22:45:00,
2013-04-25 18:00:00,62.9,39.0,30.26,North,354,7.0,7.0,41,0.00,,,0.00,weatherlink.com 1.10,2013-04-25 23:00:00,
2013-04-25 18:15:00,62.3,38.0,30.27,NNE,16,5.0,8.0,41,0.00,,,0.00,weatherlink.com 1.10,2013-04-25 23:15:00,
2013-04-25 18:30:00,62.2,39.0,30.26,NE,35,2.0,6.0,42,0.00,,,0.00,weatherlink.com 1.10,2013-04-25 23:30:00,
2013-04-25 18:45:00,62.2,39.0,30.27,NE,37,3.0,6.0,42,0.00,,,0.00,weatherlink.com 1.10,2013-04-25 23:45:00,
2013-04-25 19:00:00,62.1,38.0,30.27,NNE,19,2.0,5.0,41,0.00,,,0.00,weatherlink.com 1.10,2013-04-26 00:00:00,
2013-04-25 19:15:00,61.4,39.0,30.27,NE,41,3.0,4.0,43,0.00,,,0.00,weatherlink.com 1.10,2013-04-26 00:15:00,
2013-04-25 19:30:00,60.6,39.0,30.27,NE,41,1.0,3.0,45,0.00,,,0.00,weatherlink.com 1.10,2013-04-26 00:30:00,
2013-04-25 19:45:00,59.4,41.0,30.26,NE,41,0.0,3.0,50,0.00,,,0.00,weatherlink.com 1.10,2013-04-26 00:45:00,
2013-04-25 20:00:00,58.6,40.0,30.27,NE,41,1.0,1.0,51,0.00,,,0.00,weatherlink.com 1.10,2013-04-26 01:00:00,
2013-04-25 20:15:00,57.0,41.0,30.27,NE,41,0.0,1.0,55,0.00,,,0.00,weatherlink.com 1.10,2013-04-26 01:15:00,
2013-04-25 20:30:00,56.7,40.0,30.28,NE,41,0.0,1.0,55,0.00,,,0.00,weatherlink.com 1.10,2013-04-26 01:30:00,
2013-04-25 20:45:00,56.0,42.0,30.28,NE,41,0.0,1.0,59,0.00,,,0.00,weatherlink.com 1.10,2013-04-26 01:45:00,
2013-04-25 21:00:00,55.1,41.0,30.28,NE,41,0.0,0.0,59,0.00,,,0.00,weatherlink.com 1.10,2013-04-26 02:00:00,
2013-04-25 21:15:00,55.2,41.0,30.30,NE,41,2.0,2.0,59,0.00,,,0.00,weatherlink.com 1.10,2013-04-26 02:15:00,
2013-04-25 21:30:00,54.9,41.0,30.30,NE,41,1.0,2.0,61,0.00,,,0.00,weatherlink.com 1.10,2013-04-26 02:30:00,
2013-04-25 21:45:00,54.6,41.0,30.30,NE,53,0.0,3.0,61,0.00,,,0.00,weatherlink.com 1.10,2013-04-26 02:45:00,
2013-04-25 22:00:00,54.4,41.0,30.30,East,101,0.0,5.0,60,0.00,,,0.00,weatherlink.com 1.10,2013-04-26 03:00:00,
2013-04-25 22:15:00,54.0,41.0,30.30,ESE,102,1.0,2.0,61,0.00,,,0.00,weatherlink.com 1.10,2013-04-26 03:15:00,
2013-04-25 22:30:00,53.7,40.0,30.30,ESE,102,0.0,5.0,60,0.00,,,0.00,weatherlink.com 1.10,2013-04-26 03:30:00,
2013-04-25 22:45:00,53.2,40.0,30.30,ESE,102,0.0,1.0,61,0.00,,,0.00,weatherlink.com 1.10,2013-04-26 03:45:00,
2013-04-25 23:00:00,52.6,40.0,30.30,ESE,102,0.0,3.0,62,0.00,,,0.00,weatherlink.com 1.10,2013-04-26 04:00:00,
2013-04-25 23:15:00,52.1,40.0,30.30,ESE,102,1.0,3.0,64,0.00,,,0.00,weatherlink.com 1.10,2013-04-26 04:15:00,
2013-04-25 23:30:00,51.7,40.0,30.30,ESE,102,1.0,2.0,64,0.00,,,0.00,weatherlink.com 1.10,2013-04-26 04:30:00,
2013-04-25 23:45:00,51.0,40.0,30.30,ESE,102,1.0,1.0,66,0.00,,,0.00,weatherlink.com 1.10,2013-04-26 04:45:00,